Time;durP1;ratioP1;P1;durP2;ratioP2;P2;SDS_P1;SDS_P2;PMS_P1;PMS_P2;Temp;Humidity;BMP_temperature;BMP_pressure;BME280_temperature;BME280_humidity;BME280_pressure;Samples;Min_cycle;Max_cycle;Signal;HPM_P1;HPM_P2
2022/01/15 00:02:14;;;;;;;211.60;70.05;;;6.20;99.90;;;;;;5033866;28;20026;-78
2022/01/15 00:04:41;;;;;;;206.73;68.95;;;6.20;99.90;;;;;;5034941;28;20359;-78
2022/01/15 00:07:12;;;;;;;232.65;72.35;;;6.10;99.90;;;;;;5035466;28;20595;-78
2022/01/15 00:09:39;;;;;;;204.15;66.47;;;6.20;99.90;;;;;;5033866;28;20026;-78
2022/01/15 00:12:06;;;;;;;193.70;64.57;;;6.10;99.90;;;;;;5033825;28;20025;-79
2022/01/15 00:14:38;;;;;;;237.27;69.30;;;6.00;99.90;;;;;;5033823;28;20014;-78
2022/01/15 00:17:31;;;;;;;212.50;66.22;;;6.00;99.90;;;;;;5034955;28;20051;-78
2022/01/15 00:20:05;;;;;;;;;;;6.00;99.90;;;;;;5035076;28;20131;-76
2022/01/15 00:22:34;;;;;;;194.68;65.28;;;6.10;99.90;;;;;;5037754;28;20729;-78
2022/01/15 00:25:02;;;;;;;214.43;67.25;;;6.10;99.90;;;;;;5054666;28;20397;-78
2022/01/15 00:27:28;;;;;;;199.23;64.82;;;6.10;99.90;;;;;;5054625;28;20043;-79
2022/01/15 00:29:55;;;;;;;225.20;67.47;;;6.10;99.90;;;;;;5054816;28;20060;-79
2022/01/15 00:32:21;;;;;;;220.35;69.38;;;6.10;99.90;;;;;;5053111;28;20420;-78
2022/01/15 00:34:47;;;;;;;206.60;65.90;;;6.10;99.90;;;;;;5054508;28;20036;-78
2022/01/15 00:37:14;;;;;;;222.75;72.07;;;6.20;99.90;;;;;;5053243;28;20033;-78
2022/01/15 00:39:40;;;;;;;224.55;74.88;;;6.00;99.90;;;;;;5072125;28;20549;-78
2022/01/15 00:42:09;;;;;;;288.38;79.97;;;5.90;99.90;;;;;;5074480;28;20036;-78
2022/01/15 00:44:36;;;;;;;229.98;77.57;;;5.90;99.90;;;;;;5074356;28;20047;-78
2022/01/15 00:47:04;;;;;;;244.45;76.43;;;5.80;99.90;;;;;;5073959;28;20032;-78
2022/01/15 00:49:31;;;;;;;240.57;76.85;;;5.70;99.90;;;;;;5074547;28;20085;-79
2022/01/15 00:52:02;;;;;;;313.15;80.15;;;5.70;99.90;;;;;;5074380;28;20025;-78
2022/01/15 00:54:28;;;;;;;210.50;66.88;;;5.70;99.90;;;;;;5053683;28;20021;-79
2022/01/15 00:57:00;;;;;;;204.55;61.08;;;5.70;99.90;;;;;;5054342;28;20029;-79
2022/01/15 00:59:28;;;;;;;301.77;69.73;;;5.70;99.90;;;;;;5052831;28;20025;-78
2022/01/15 01:01:53;;;;;;;204.90;62.05;;;5.70;99.90;;;;;;5052766;28;20478;-78
2022/01/15 01:04:20;;;;;;;208.25;62.88;;;5.70;99.90;;;;;;5052536;28;20032;-79
2022/01/15 01:06:45;;;;;;;185.20;57.58;;;5.70;99.90;;;;;;5053732;28;20077;-78
2022/01/15 01:09:12;;;;;;;247.23;66.25;;;5.50;99.90;;;;;;5052273;28;20028;-78
2022/01/15 01:11:52;;;;;;;286.65;66.60;;;5.60;99.90;;;;;;5053883;28;20025;-78
2022/01/15 01:20:03;;;;;;;195.25;62.33;;;5.50;99.90;;;;;;5054033;28;20141;-78
2022/01/15 01:24:58;;;;;;;192.93;60.75;;;5.50;99.90;;;;;;5053589;28;20033;-78
2022/01/15 01:27:42;;;;;;;195.75;58.17;;;5.60;99.90;;;;;;5053804;28;20351;-78
2022/01/15 01:30:21;;;;;;;213.20;60.28;;;5.70;99.90;;;;;;5053276;28;20393;-78
2022/01/15 01:33:15;;;;;;;201.43;57.22;;;5.70;99.90;;;;;;5052341;28;20025;-80
2022/01/15 01:35:47;;;;;;;192.98;56.88;;;5.70;99.90;;;;;;5033779;28;20106;-81
2022/01/15 01:38:29;;;;;;;198.80;57.13;;;5.70;99.90;;;;;;5033531;28;20030;-80
2022/01/15 01:40:58;;;;;;;199.52;56.53;;;5.70;99.90;;;;;;5051685;28;20732;-80
2022/01/15 01:46:11;;;;;;;286.77;63.70;;;5.70;99.90;;;;;;5032487;28;20033;-80
2022/01/15 01:48:40;;;;;;;250.93;58.38;;;5.70;99.90;;;;;;5033042;28;20056;-80
2022/01/15 01:51:22;;;;;;;217.40;54.72;;;5.60;99.90;;;;;;5032985;28;20049;-81
2022/01/15 01:53:50;;;;;;;188.13;54.08;;;5.50;99.90;;;;;;5046153;28;20017;-80
2022/01/15 01:56:16;;;;;;;252.25;54.92;;;5.40;99.90;;;;;;5053069;28;20079;-80
2022/01/15 01:58:49;;;;;;;159.90;46.95;;;5.30;99.90;;;;;;5061357;28;20476;-81
2022/01/15 02:01:16;;;;;;;195.65;50.47;;;5.40;99.90;;;;;;5058724;28;20516;-81
2022/01/15 02:03:50;;;;;;;160.45;48.17;;;5.40;99.90;;;;;;5051379;28;20056;-81
2022/01/15 02:06:17;;;;;;;158.02;48.38;;;5.30;99.90;;;;;;5051503;28;20040;-81
2022/01/15 02:08:48;;;;;;;241.98;51.00;;;5.20;99.90;;;;;;5045504;28;20108;-81
2022/01/15 02:11:15;;;;;;;202.45;50.83;;;5.20;99.90;;;;;;5051757;28;20128;-80
2022/01/15 02:13:44;;;;;;;223.68;54.95;;;5.30;99.90;;;;;;5052532;28;20021;-81
2022/01/15 02:16:16;;;;;;;207.82;49.40;;;5.20;99.90;;;;;;5051607;28;20017;-81
2022/01/15 02:18:46;;;;;;;166.68;46.58;;;5.30;99.90;;;;;;5031976;28;20416;-80
2022/01/15 02:23:57;;;;;;;195.27;49.28;;;5.30;99.90;;;;;;5056872;28;20037;-81
2022/01/15 02:26:28;;;;;;;274.17;47.92;;;5.40;99.90;;;;;;5055438;28;20033;-81
2022/01/15 02:29:04;;;;;;;148.52;40.10;;;5.30;99.90;;;;;;5056155;28;20033;-81
2022/01/15 02:31:31;;;;;;;153.80;41.13;;;5.30;99.90;;;;;;5056607;28;20112;-80
2022/01/15 02:34:01;;;;;;;262.75;43.67;;;5.20;99.90;;;;;;5062449;28;20017;-81
2022/01/15 02:36:31;;;;;;;170.65;37.28;;;5.20;99.90;;;;;;5056301;28;20029;-80
2022/01/15 02:39:00;;;;;;;128.15;35.15;;;5.00;99.90;;;;;;5055242;28;20053;-80
2022/01/15 02:41:35;;;;;;;177.07;36.95;;;5.10;99.90;;;;;;5056526;28;20032;-80
2022/01/15 02:44:06;;;;;;;129.93;29.42;;;5.00;99.90;;;;;;5055995;28;20473;-80
2022/01/15 02:48:00;;;;;;;135.73;30.20;;;5.00;99.90;;;;;;5056226;28;20082;-81
2022/01/15 02:49:24;;;;;;;84.95;27.02;;;4.90;99.90;;;;;;5056408;28;20447;-80
2022/01/15 02:51:55;;;;;;;104.05;28.27;;;4.80;99.90;;;;;;5071806;28;20432;-81
2022/01/15 02:54:24;;;;;;;132.30;30.80;;;4.80;99.90;;;;;;5071480;28;20021;-80
2022/01/15 02:56:52;;;;;;;122.97;30.45;;;4.80;99.90;;;;;;5041232;28;20036;-80
2022/01/15 02:59:26;;;;;;;111.47;29.85;;;4.80;99.90;;;;;;5036038;28;20524;-80
2022/01/15 03:01:53;;;;;;;147.13;33.70;;;4.70;99.90;;;;;;5036118;28;20021;-80
2022/01/15 03:04:22;;;;;;;159.35;35.40;;;4.80;99.90;;;;;;5040933;28;20120;-81
2022/01/15 03:06:51;;;;;;;157.98;37.72;;;4.70;99.90;;;;;;5055834;28;20028;-81
2022/01/15 03:09:18;;;;;;;112.13;31.80;;;4.70;99.90;;;;;;5054550;28;20025;-80
2022/01/15 03:11:44;;;;;;;160.05;33.85;;;4.60;99.90;;;;;;5071240;28;20024;-80
2022/01/15 03:14:18;;;;;;;140.18;34.15;;;4.60;99.90;;;;;;5055756;28;20102;-80
2022/01/15 03:16:46;;;;;;;173.43;38.03;;;4.60;99.90;;;;;;5055945;28;20049;-80
2022/01/15 03:19:16;;;;;;;114.38;34.58;;;4.70;99.90;;;;;;5071204;28;20477;-80
2022/01/15 03:21:43;;;;;;;116.57;34.58;;;4.60;99.90;;;;;;5055789;28;20025;-80
2022/01/15 03:24:19;;;;;;;100.70;33.30;;;4.60;99.90;;;;;;5054264;28;20025;-80
2022/01/15 03:26:50;;;;;;;107.65;33.58;;;4.70;99.90;;;;;;5055357;28;20424;-80
2022/01/15 03:29:16;;;;;;;119.90;36.77;;;4.70;99.90;;;;;;5051361;28;20029;-80
2022/01/15 03:31:44;;;;;;;180.75;38.97;;;4.90;99.90;;;;;;5070462;28;20266;-80
2022/01/15 03:34:10;;;;;;;129.13;36.67;;;4.80;99.90;;;;;;5055071;28;20108;-80
2022/01/15 03:36:35;;;;;;;133.63;36.65;;;4.80;99.90;;;;;;5051828;28;20163;-80
2022/01/15 03:39:04;;;;;;;124.07;36.00;;;4.80;99.90;;;;;;5055325;28;20025;-80
2022/01/15 03:41:33;;;;;;;119.45;35.72;;;4.80;99.90;;;;;;5053984;28;20469;-80
2022/01/15 03:44:01;;;;;;;132.70;38.03;;;4.70;99.90;;;;;;5055343;28;20029;-81
2022/01/15 03:46:28;;;;;;;126.13;38.35;;;4.70;99.90;;;;;;5054121;28;20021;-80
2022/01/15 03:48:55;;;;;;;150.10;40.00;;;4.60;99.90;;;;;;5054013;28;20453;-80
2022/01/15 03:51:22;;;;;;;207.88;42.25;;;4.70;99.90;;;;;;5048873;28;20108;-79
2022/01/15 03:53:49;;;;;;;125.97;37.75;;;4.60;99.90;;;;;;5052344;28;20025;-80
2022/01/15 03:56:15;;;;;;;127.00;35.55;;;4.60;99.90;;;;;;5070137;28;20047;-80
2022/01/15 03:58:47;;;;;;;106.07;36.67;;;4.60;99.90;;;;;;5075156;28;20035;-81
2022/01/15 04:01:13;;;;;;;118.40;34.15;;;4.60;99.90;;;;;;5053977;28;20025;-80
2022/01/15 04:03:38;;;;;;;124.95;35.00;;;4.70;99.90;;;;;;5053630;28;20500;-80
2022/01/15 04:06:04;;;;;;;233.07;43.58;;;4.70;99.90;;;;;;5055108;28;20026;-80
2022/01/15 04:08:30;;;;;;;136.20;37.80;;;4.70;99.90;;;;;;5058628;28;20035;-80
2022/01/15 04:10:56;;;;;;;136.57;35.63;;;4.60;99.90;;;;;;5057191;28;20096;-79
2022/01/15 04:13:28;;;;;;;118.68;35.65;;;4.70;99.90;;;;;;5054637;28;20424;-80
2022/01/15 04:15:57;;;;;;;124.93;34.20;;;4.80;99.90;;;;;;5055282;28;20025;-80
2022/01/15 04:18:23;;;;;;;115.88;35.35;;;4.80;99.90;;;;;;5053741;28;20182;-80
2022/01/15 04:20:51;;;;;;;130.52;37.67;;;4.80;99.90;;;;;;5054715;28;20025;-80
2022/01/15 04:23:17;;;;;;;120.28;34.67;;;4.80;99.90;;;;;;5039430;28;20049;-80
2022/01/15 04:25:46;;;;;;;147.65;36.67;;;4.70;99.90;;;;;;5053300;28;20457;-80
2022/01/15 04:28:14;;;;;;;124.43;33.05;;;4.80;99.90;;;;;;5053378;28;20028;-80
2022/01/15 04:30:48;;;;;;;121.03;34.38;;;4.70;99.90;;;;;;5055060;28;20502;-80
2022/01/15 04:33:17;;;;;;;141.70;37.15;;;4.80;99.90;;;;;;5053236;28;20478;-80
2022/01/15 04:35:46;;;;;;;150.30;35.97;;;4.80;99.90;;;;;;5053164;28;20028;-80
2022/01/15 04:38:15;;;;;;;149.20;37.05;;;4.70;99.90;;;;;;5054735;28;20025;-80
2022/01/15 04:40:40;;;;;;;146.70;34.90;;;4.80;99.90;;;;;;5032935;28;20413;-80
2022/01/15 04:43:06;;;;;;;130.88;35.22;;;4.80;99.90;;;;;;5033774;28;20029;-80
2022/01/15 04:45:31;;;;;;;132.00;35.90;;;4.80;99.90;;;;;;5036980;28;20605;-80
2022/01/15 04:47:57;;;;;;;163.73;36.38;;;4.70;99.90;;;;;;5048898;28;20029;-80
2022/01/15 04:50:23;;;;;;;149.80;35.78;;;4.70;99.90;;;;;;5053263;28;20105;-80
2022/01/15 04:52:50;;;;;;;149.13;37.65;;;4.70;99.90;;;;;;5052816;28;20025;-80
2022/01/15 04:55:16;;;;;;;165.10;39.05;;;4.60;99.90;;;;;;5052678;28;20369;-80
2022/01/15 04:57:42;;;;;;;119.28;35.70;;;4.60;99.90;;;;;;5054016;28;20029;-80
2022/01/15 05:00:12;;;;;;;151.10;37.63;;;4.70;99.90;;;;;;5043505;28;20494;-80
2022/01/15 05:02:38;;;;;;;186.63;39.97;;;4.80;99.90;;;;;;5053905;28;20028;-80
2022/01/15 05:05:04;;;;;;;487.15;56.22;;;4.70;99.90;;;;;;5052563;28;20447;-80
2022/01/15 05:07:30;;;;;;;149.35;36.80;;;4.80;99.90;;;;;;5053826;28;20041;-80
2022/01/15 05:09:55;;;;;;;113.65;35.53;;;4.90;99.90;;;;;;5052403;28;20025;-80
2022/01/15 05:12:29;;;;;;;193.75;38.20;;;4.90;99.90;;;;;;5046479;28;20116;-80
2022/01/15 05:14:58;;;;;;;211.25;41.78;;;4.90;99.90;;;;;;5049287;28;20053;-80
2022/01/15 05:17:34;;;;;;;194.23;39.38;;;4.90;99.90;;;;;;5033963;28;20032;-80
2022/01/15 05:20:03;;;;;;;140.50;35.75;;;5.00;99.90;;;;;;5049052;28;20036;-80
2022/01/15 05:22:33;;;;;;;250.30;43.95;;;4.90;99.90;;;;;;5032538;28;20048;-78
2022/01/15 05:25:02;;;;;;;231.05;43.75;;;4.90;99.90;;;;;;5032392;28;20125;-78
2022/01/15 05:27:28;;;;;;;185.05;40.55;;;4.90;99.90;;;;;;5032598;28;20496;-78
2022/01/15 05:29:53;;;;;;;115.10;37.20;;;5.00;99.90;;;;;;5032385;28;20112;-78
2022/01/15 05:32:23;;;;;;;166.55;40.42;;;5.00;99.90;;;;;;5032413;28;20036;-78
2022/01/15 05:34:51;;;;;;;234.77;46.72;;;5.00;99.90;;;;;;5033640;28;20470;-78
2022/01/15 05:37:18;;;;;;;190.55;41.72;;;4.90;99.90;;;;;;5033449;28;20029;-78
2022/01/15 05:39:45;;;;;;;190.93;43.47;;;4.90;99.90;;;;;;5033374;28;20104;-78
2022/01/15 05:42:10;;;;;;;199.00;45.22;;;5.00;99.90;;;;;;5050731;28;20029;-78
2022/01/15 05:44:36;;;;;;;173.13;40.88;;;5.00;99.90;;;;;;5053531;28;20025;-78
2022/01/15 05:47:02;;;;;;;235.05;46.63;;;5.00;99.90;;;;;;5052051;28;20142;-78
2022/01/15 05:49:29;;;;;;;218.57;44.42;;;4.80;99.90;;;;;;5053788;28;20025;-78
2022/01/15 05:51:56;;;;;;;184.70;46.42;;;4.70;99.90;;;;;;5053171;28;20025;-78
2022/01/15 05:54:21;;;;;;;217.18;46.58;;;4.70;99.90;;;;;;5051895;28;20377;-77
2022/01/15 05:56:48;;;;;;;235.23;49.67;;;4.70;99.90;;;;;;5053334;28;20096;-77
2022/01/15 05:59:14;;;;;;;187.52;44.95;;;4.80;99.90;;;;;;5053239;28;20028;-77
2022/01/15 06:01:40;;;;;;;146.75;40.47;;;4.70;99.90;;;;;;5038988;28;20384;-77
2022/01/15 06:04:06;;;;;;;171.77;39.85;;;4.60;99.90;;;;;;5033244;28;20029;-77
2022/01/15 06:06:31;;;;;;;140.23;36.40;;;4.50;99.90;;;;;;5033286;28;20021;-77
2022/01/15 06:08:58;;;;;;;216.13;40.40;;;4.60;99.90;;;;;;5031952;28;20025;-77
2022/01/15 06:11:24;;;;;;;344.98;50.08;;;4.60;99.90;;;;;;5041126;28;20025;-77
2022/01/15 06:13:51;;;;;;;177.63;39.95;;;4.60;99.90;;;;;;5051869;28;20071;-77
2022/01/15 06:16:18;;;;;;;167.77;41.72;;;4.80;99.90;;;;;;5053320;28;20017;-77
2022/01/15 06:18:47;;;;;;;175.40;38.30;;;4.90;99.90;;;;;;5051931;28;20124;-77
2022/01/15 06:21:12;;;;;;;256.90;41.83;;;4.70;99.90;;;;;;5052897;28;20043;-77
2022/01/15 06:23:38;;;;;;;140.85;39.10;;;4.70;99.90;;;;;;5053043;28;20465;-77
2022/01/15 06:26:04;;;;;;;262.67;43.30;;;4.70;99.90;;;;;;5053082;28;20644;-77
2022/01/15 06:28:29;;;;;;;152.23;35.35;;;4.70;99.90;;;;;;5053082;28;20029;-77
2022/01/15 06:30:56;;;;;;;265.90;44.85;;;4.70;99.90;;;;;;5052748;28;20517;-77
2022/01/15 06:33:22;;;;;;;127.82;34.28;;;4.70;99.90;;;;;;5066132;28;20028;-78
2022/01/15 06:35:48;;;;;;;206.38;38.83;;;4.70;99.90;;;;;;5036958;28;20502;-77
2022/01/15 06:38:14;;;;;;;222.57;38.38;;;4.70;99.90;;;;;;5039197;28;20474;-77
2022/01/15 06:40:39;;;;;;;148.80;38.08;;;4.70;99.90;;;;;;5052680;28;20025;-77
2022/01/15 06:43:08;;;;;;;239.45;43.22;;;4.70;99.90;;;;;;5067996;28;20032;-77
2022/01/15 06:45:35;;;;;;;159.80;37.55;;;4.70;99.90;;;;;;5051616;28;20021;-77
2022/01/15 06:48:03;;;;;;;236.00;42.42;;;4.60;99.90;;;;;;5068411;28;20454;-77
2022/01/15 06:50:29;;;;;;;135.32;34.70;;;4.40;99.90;;;;;;5051327;28;20104;-77
2022/01/15 06:52:56;;;;;;;186.38;34.45;;;4.50;99.90;;;;;;5052682;28;20040;-77
2022/01/15 06:55:25;;;;;;;146.63;30.90;;;4.50;99.90;;;;;;5052858;28;20017;-77
2022/01/15 06:57:53;;;;;;;147.18;34.20;;;4.40;99.90;;;;;;5051486;28;20029;-77
2022/01/15 07:00:19;;;;;;;171.35;33.45;;;4.50;99.90;;;;;;5051423;28;20028;-77
2022/01/15 07:02:46;;;;;;;125.70;31.92;;;4.50;99.90;;;;;;5052520;28;20482;-77
2022/01/15 07:05:13;;;;;;;276.15;40.17;;;4.50;99.90;;;;;;5053726;28;20074;-77
2022/01/15 07:07:45;;;;;;;130.15;31.05;;;4.50;99.90;;;;;;5066910;28;20021;-77
2022/01/15 07:10:13;;;;;;;175.85;36.67;;;4.30;99.90;;;;;;5054987;28;20025;-77
2022/01/15 07:12:38;;;;;;;340.63;42.70;;;4.30;99.90;;;;;;5056309;28;20025;-77
2022/01/15 07:15:11;;;;;;;136.18;30.45;;;4.40;99.90;;;;;;5055049;28;20021;-77
2022/01/15 07:17:45;;;;;;;165.52;32.60;;;4.30;99.90;;;;;;5046691;28;20025;-77
2022/01/15 07:20:13;;;;;;;116.95;30.65;;;4.20;99.90;;;;;;5055753;28;20029;-78
2022/01/15 07:22:42;;;;;;;137.70;30.50;;;4.20;99.90;;;;;;5056436;28;20377;-78
2022/01/15 07:25:09;;;;;;;184.60;32.75;;;4.30;99.90;;;;;;5055930;28;20041;-77
2022/01/15 07:27:37;;;;;;;200.40;31.65;;;4.30;99.90;;;;;;5056103;28;20108;-75
2022/01/15 07:30:09;;;;;;;191.82;33.60;;;4.20;99.90;;;;;;5054408;28;20082;-78
2022/01/15 07:32:36;;;;;;;133.52;30.15;;;4.20;99.90;;;;;;5055695;28;20028;-77
2022/01/15 07:35:04;;;;;;;216.65;36.28;;;4.30;99.90;;;;;;5071198;28;20108;-77
2022/01/15 07:37:31;;;;;;;159.30;33.00;;;4.20;99.90;;;;;;5053915;28;20040;-78
2022/01/15 07:40:01;;;;;;;155.82;30.67;;;4.30;99.90;;;;;;5035703;28;20393;-77
2022/01/15 07:42:36;;;;;;;117.78;28.63;;;4.30;99.90;;;;;;5035816;28;20026;-77
2022/01/15 07:45:07;;;;;;;244.73;38.28;;;4.40;99.90;;;;;;5034374;28;20029;-78
2022/01/15 07:47:35;;;;;;;289.23;39.58;;;4.50;99.90;;;;;;5035213;28;20030;-78
2022/01/15 07:50:01;;;;;;;134.88;32.20;;;4.50;99.90;;;;;;5035484;28;20033;-78
2022/01/15 07:52:27;;;;;;;125.57;33.53;;;4.60;99.90;;;;;;5051616;28;20030;-78
2022/01/15 07:54:53;;;;;;;127.20;31.83;;;4.50;99.90;;;;;;5073811;28;20085;-78
2022/01/15 07:57:20;;;;;;;156.23;33.83;;;4.50;99.90;;;;;;5075032;28;20033;-78
2022/01/15 07:59:46;;;;;;;133.88;35.22;;;4.40;99.90;;;;;;5051814;28;20029;-78
2022/01/15 08:02:13;;;;;;;144.45;35.95;;;4.40;99.90;;;;;;5050698;28;20400;-77
2022/01/15 08:04:40;;;;;;;180.77;40.70;;;4.40;99.90;;;;;;5055023;28;20032;-78
2022/01/15 08:07:05;;;;;;;170.55;41.50;;;4.40;99.90;;;;;;5053505;28;20025;-77
2022/01/15 08:09:31;;;;;;;186.45;43.08;;;4.40;99.90;;;;;;5054994;28;20028;-78
2022/01/15 08:11:58;;;;;;;153.95;35.65;;;4.40;99.90;;;;;;5053751;28;20477;-78
2022/01/15 08:14:23;;;;;;;148.65;36.42;;;4.20;99.90;;;;;;5054524;28;20481;-77
2022/01/15 08:16:49;;;;;;;156.23;33.35;;;4.20;99.90;;;;;;5069001;28;20040;-77
2022/01/15 08:19:15;;;;;;;158.27;35.03;;;4.20;99.90;;;;;;5054478;28;20017;-77
2022/01/15 08:21:42;;;;;;;174.32;34.67;;;4.20;99.90;;;;;;5053279;28;20029;-78
2022/01/15 08:24:09;;;;;;;205.90;35.80;;;4.20;99.90;;;;;;5053487;28;20039;-78
2022/01/15 08:26:38;;;;;;;178.27;35.28;;;4.10;99.90;;;;;;5053391;28;20020;-77
2022/01/15 08:29:04;;;;;;;190.18;36.85;;;4.20;99.90;;;;;;5053321;28;20496;-77
2022/01/15 08:31:33;;;;;;;186.57;34.78;;;4.20;99.90;;;;;;5052985;28;20029;-77
2022/01/15 08:33:59;;;;;;;137.95;31.30;;;4.30;99.90;;;;;;5054506;28;20028;-77
2022/01/15 08:36:25;;;;;;;176.70;36.55;;;4.20;99.90;;;;;;5054629;28;20025;-77
2022/01/15 08:38:57;;;;;;;198.38;40.17;;;4.40;99.90;;;;;;5058481;28;20029;-77
2022/01/15 08:41:23;;;;;;;181.10;35.80;;;4.40;99.90;;;;;;5074502;28;20029;-77
2022/01/15 08:43:49;;;;;;;164.57;34.30;;;4.40;99.90;;;;;;5073377;28;20043;-77
2022/01/15 08:46:21;;;;;;;167.50;36.80;;;4.40;99.90;;;;;;5074125;28;20403;-77
2022/01/15 08:48:49;;;;;;;187.73;37.05;;;4.50;99.90;;;;;;5064336;28;20112;-77
2022/01/15 08:51:15;;;;;;;104.07;30.35;;;4.60;99.90;;;;;;5054367;28;20049;-77
2022/01/15 08:53:41;;;;;;;122.07;31.23;;;4.50;99.90;;;;;;5071116;28;20059;-78
2022/01/15 08:56:08;;;;;;;162.90;29.83;;;4.50;99.90;;;;;;5066236;28;20407;-78
2022/01/15 08:58:34;;;;;;;190.63;32.88;;;4.30;99.90;;;;;;5054247;28;20028;-78
2022/01/15 09:01:02;;;;;;;110.82;31.08;;;4.30;99.90;;;;;;5052541;28;20049;-78
2022/01/15 09:03:28;;;;;;;96.57;29.35;;;4.40;99.90;;;;;;5052917;28;20138;-77
2022/01/15 09:05:54;;;;;;;163.35;34.22;;;4.60;99.90;;;;;;5060369;28;20025;-77
2022/01/15 09:08:24;;;;;;;105.40;31.08;;;4.50;99.90;;;;;;5053920;28;20025;-77
2022/01/15 09:10:52;;;;;;;112.72;30.52;;;4.50;99.90;;;;;;5045774;28;20025;-77
2022/01/15 09:13:20;;;;;;;104.47;30.40;;;4.50;99.90;;;;;;5053740;28;20025;-77
2022/01/15 09:15:46;;;;;;;100.90;28.00;;;4.50;99.90;;;;;;5053644;28;20021;-77
2022/01/15 09:18:12;;;;;;;99.93;29.00;;;4.40;99.90;;;;;;5053729;28;20040;-78
2022/01/15 09:20:38;;;;;;;110.07;30.52;;;4.40;99.90;;;;;;5053847;28;20091;-77
2022/01/15 09:23:12;;;;;;;127.97;30.48;;;4.30;99.90;;;;;;5053569;28;20100;-78
2022/01/15 09:25:41;;;;;;;447.02;47.70;;;4.30;99.90;;;;;;5050597;28;20028;-78
2022/01/15 09:30:56;;;;;;;160.82;34.03;;;4.40;99.90;;;;;;5053328;28;20555;-77
2022/01/15 09:33:27;;;;;;;186.15;32.55;;;4.30;99.90;;;;;;5033114;28;20448;-78
2022/01/15 09:35:53;;;;;;;111.70;31.80;;;4.40;99.90;;;;;;5034059;28;20466;-77
2022/01/15 09:38:20;;;;;;;163.88;33.25;;;4.40;99.90;;;;;;5071842;28;20111;-78
2022/01/15 09:40:46;;;;;;;109.43;28.75;;;4.40;99.90;;;;;;5073403;28;20028;-78
2022/01/15 09:43:14;;;;;;;148.00;31.92;;;4.40;99.90;;;;;;5072000;28;20539;-78
2022/01/15 09:45:44;;;;;;;233.52;38.40;;;4.40;99.90;;;;;;5073529;28;20108;-78
2022/01/15 09:48:13;;;;;;;289.23;38.90;;;4.50;99.90;;;;;;5073397;28;20035;-78
2022/01/15 09:50:43;;;;;;;114.32;31.17;;;4.40;99.90;;;;;;5073684;28;20025;-78
2022/01/15 09:53:29;;;;;;;120.18;33.00;;;4.50;99.90;;;;;;5060292;28;20017;-79
2022/01/15 09:55:56;;;;;;;111.53;30.35;;;4.60;99.90;;;;;;5051994;28;20025;-79
2022/01/15 09:58:21;;;;;;;129.82;34.08;;;4.60;99.90;;;;;;5051636;28;20143;-79
2022/01/15 10:00:50;;;;;;;119.00;30.98;;;4.60;99.90;;;;;;5053067;28;20505;-79
2022/01/15 10:03:19;;;;;;;135.60;30.13;;;4.60;99.90;;;;;;5051767;28;20500;-79
2022/01/15 10:05:47;;;;;;;128.68;42.92;;;4.50;99.90;;;;;;5053093;28;20086;-79
2022/01/15 10:08:19;;;;;;;128.68;33.28;;;4.60;99.90;;;;;;5053038;28;20083;-79
2022/01/15 10:10:52;;;;;;;94.72;28.80;;;4.50;99.90;;;;;;5038354;28;20045;-80
2022/01/15 10:13:27;;;;;;;160.05;28.98;;;4.50;99.90;;;;;;5033027;28;20049;-79
2022/01/15 10:15:59;;;;;;;147.82;32.00;;;4.50;99.90;;;;;;5033429;28;20024;-79
2022/01/15 10:18:30;;;;;;;103.90;28.30;;;4.40;99.90;;;;;;5033463;28;20044;-79
2022/01/15 10:21:12;;;;;;;84.70;28.02;;;4.30;99.90;;;;;;5061326;28;20071;-79
2022/01/15 10:24:04;;;;;;;136.23;30.75;;;4.40;99.90;;;;;;5051879;28;20103;-79
2022/01/15 10:26:35;;;;;;;92.63;28.65;;;4.50;99.90;;;;;;5046649;28;20061;-79
2022/01/15 10:29:06;;;;;;;130.15;33.20;;;4.60;99.90;;;;;;5031719;28;20429;-79
2022/01/15 10:31:44;;;;;;;93.03;29.92;;;4.70;99.90;;;;;;5044362;28;20138;-79
2022/01/15 10:34:28;;;;;;;109.78;30.55;;;4.60;99.90;;;;;;5052854;28;20090;-79
2022/01/15 10:37:10;;;;;;;93.93;27.63;;;4.60;99.90;;;;;;5052945;28;20021;-79
2022/01/15 10:39:36;;;;;;;160.80;32.30;;;4.60;99.90;;;;;;5058870;28;20020;-79
2022/01/15 10:42:13;;;;;;;159.23;35.47;;;4.60;99.90;;;;;;5076220;28;20031;-79
2022/01/15 10:44:39;;;;;;;179.88;35.83;;;4.70;99.90;;;;;;5071445;28;20021;-79
2022/01/15 10:47:05;;;;;;;98.97;28.75;;;4.80;99.90;;;;;;5055022;28;20020;-79
2022/01/15 10:49:31;;;;;;;66.40;24.52;;;4.80;99.90;;;;;;5055282;28;20091;-79
2022/01/15 10:52:15;;;;;;;130.25;27.83;;;4.80;99.90;;;;;;5055202;28;20063;-79
2022/01/15 10:55:08;;;;;;;111.90;26.38;;;4.70;99.90;;;;;;5056516;28;20021;-79
2022/01/15 10:57:36;;;;;;;;;;;4.80;99.90;;;;;;5036777;28;20111;-80
2022/01/15 11:00:18;;;;;;;68.00;23.65;;;4.80;99.90;;;;;;5036741;28;19912;-81
2022/01/15 11:02:49;;;;;;;86.95;27.77;;;4.70;99.90;;;;;;5035157;28;20033;-78
2022/01/15 11:05:25;;;;;;;91.75;26.75;;;4.60;99.90;;;;;;5036303;28;20056;-78
2022/01/15 11:07:53;;;;;;;91.55;27.15;;;4.60;99.90;;;;;;5035121;28;20037;-78
2022/01/15 11:10:22;;;;;;;82.80;27.55;;;4.70;99.90;;;;;;5036141;28;20029;-78
2022/01/15 11:12:48;;;;;;;98.32;28.63;;;4.70;99.90;;;;;;5055147;28;20020;-78
2022/01/15 11:15:16;;;;;;;80.57;27.73;;;4.70;99.90;;;;;;5054744;28;20028;-78
2022/01/15 11:17:41;;;;;;;83.25;28.40;;;4.80;99.90;;;;;;5055940;28;20029;-78
2022/01/15 11:20:11;;;;;;;80.50;28.13;;;4.90;99.90;;;;;;5054808;28;20358;-78
2022/01/15 11:22:40;;;;;;;76.97;26.45;;;4.90;99.90;;;;;;5055985;28;20031;-78
2022/01/15 11:25:11;;;;;;;81.65;27.85;;;5.00;99.90;;;;;;5054420;28;20039;-78
2022/01/15 11:27:37;;;;;;;85.82;29.17;;;5.10;99.90;;;;;;5055816;28;20078;-80
2022/01/15 11:30:04;;;;;;;85.60;30.95;;;5.10;99.90;;;;;;5054786;28;20124;-79
2022/01/15 11:32:31;;;;;;;74.43;27.90;;;5.10;99.90;;;;;;5055080;28;20025;-79
2022/01/15 11:35:04;;;;;;;113.55;29.75;;;5.20;99.90;;;;;;5057749;28;20394;-79
2022/01/15 11:37:39;;;;;;;99.63;27.95;;;5.10;99.90;;;;;;5060178;28;20017;-79
2022/01/15 11:40:32;;;;;;;114.55;29.35;;;5.10;99.90;;;;;;5053650;28;20469;-79
2022/01/15 11:43:18;;;;;;;;;;;5.10;99.90;;;;;;5063994;28;20071;-76
2022/01/15 11:45:47;;;;;;;88.60;27.13;;;5.20;99.90;;;;;;5034038;28;19995;-78
2022/01/15 11:48:23;;;;;;;78.57;27.52;;;5.20;99.90;;;;;;5048609;28;20090;-79
2022/01/15 11:51:13;;;;;;;76.85;26.88;;;5.20;99.90;;;;;;5074962;28;20032;-78
2022/01/15 11:53:59;;;;;;;157.98;34.53;;;5.10;99.90;;;;;;5035005;28;20025;-78
2022/01/15 11:56:37;;;;;;;107.38;29.85;;;5.00;99.90;;;;;;5035435;28;20036;-78
2022/01/15 11:59:24;;;;;;;70.10;25.40;;;5.10;99.90;;;;;;5034179;28;20493;-78
2022/01/15 12:01:52;;;;;;;88.35;28.83;;;5.20;99.90;;;;;;5041322;28;20044;-78
2022/01/15 12:04:32;;;;;;;82.25;28.42;;;5.20;99.90;;;;;;5056311;28;20052;-78
2022/01/15 12:07:05;;;;;;;82.13;27.00;;;5.30;99.90;;;;;;5039563;28;20033;-78
2022/01/15 12:09:34;;;;;;;;;;;5.30;99.90;;;;;;5044821;28;20022;-76
2022/01/15 12:12:38;;;;;;;93.85;28.15;;;5.20;99.90;;;;;;5038894;28;19955;-78
2022/01/15 12:15:06;;;;;;;85.10;27.63;;;5.20;99.90;;;;;;5043262;28;20036;-78
2022/01/15 12:17:51;;;;;;;94.15;27.02;;;5.10;99.90;;;;;;5054731;28;20025;-78
2022/01/15 12:20:17;;;;;;;75.30;26.17;;;5.10;99.90;;;;;;5053696;28;20531;-78
2022/01/15 12:22:50;;;;;;;60.38;23.55;;;5.00;99.90;;;;;;5041664;28;20025;-79
2022/01/15 12:25:25;;;;;;;60.47;24.77;;;4.90;99.90;;;;;;5051190;28;20474;-79
2022/01/15 12:27:59;;;;;;;70.30;31.60;;;5.10;99.90;;;;;;5052943;28;20036;-78
2022/01/15 12:30:34;;;;;;;68.75;25.60;;;5.10;99.90;;;;;;5047486;28;20488;-78
2022/01/15 12:33:02;;;;;;;74.00;30.02;;;5.00;99.90;;;;;;5034723;28;20513;-79
2022/01/15 12:35:33;;;;;;;73.88;26.58;;;5.10;99.90;;;;;;5053895;28;20017;-78
2022/01/15 12:38:10;;;;;;;76.93;26.88;;;5.20;99.90;;;;;;5048363;28;20116;-79
2022/01/15 12:41:01;;;;;;;74.38;26.55;;;5.10;99.90;;;;;;5033112;28;20113;-78
2022/01/15 12:43:33;;;;;;;75.93;25.92;;;5.20;99.90;;;;;;5048622;28;20032;-78
2022/01/15 12:46:05;;;;;;;;;;;5.20;99.90;;;;;;5050528;28;20021;-76
2022/01/15 12:48:32;;;;;;;77.03;24.98;;;5.20;99.90;;;;;;5043243;28;20007;-78
2022/01/15 12:51:05;;;;;;;79.97;27.08;;;5.20;99.90;;;;;;5055039;28;20474;-78
2022/01/15 12:53:44;;;;;;;79.70;25.08;;;5.10;99.90;;;;;;5053666;28;20025;-78
2022/01/15 12:56:13;;;;;;;71.38;25.27;;;5.00;99.90;;;;;;5044756;28;20501;-78
2022/01/15 12:58:42;;;;;;;76.65;27.30;;;4.80;99.90;;;;;;5033508;28;20033;-78
2022/01/15 13:01:18;;;;;;;67.15;25.95;;;4.80;99.90;;;;;;5051172;28;20028;-78